createdAt,value
2017-05-22T00:00:53.767Z,8.30
2017-05-22T00:03:22.005Z,8.20
2017-05-22T00:05:49.047Z,8.30
2017-05-22T00:08:16.083Z,8.30
2017-05-22T00:10:43.438Z,8.20
2017-05-22T00:13:10.430Z,8.20
2017-05-22T00:15:37.437Z,8.20
2017-05-22T00:18:04.003Z,8.10
2017-05-22T00:20:31.021Z,8.10
2017-05-22T00:22:58.017Z,8.10
2017-05-22T00:25:26.158Z,8.10
2017-05-22T00:27:53.164Z,8.00
2017-05-22T00:30:20.189Z,8.20
2017-05-22T00:32:47.581Z,8.10
2017-05-22T00:35:14.586Z,8.10
2017-05-22T00:37:41.605Z,8.20
2017-05-22T00:40:08.922Z,8.20
2017-05-22T00:42:35.934Z,8.20
2017-05-22T00:45:02.942Z,8.20
2017-05-22T00:47:30.273Z,8.30
2017-05-22T00:49:57.312Z,8.20
2017-05-22T00:52:24.314Z,8.10
2017-05-22T00:54:51.685Z,8.10
2017-05-22T00:57:18.695Z,7.90
2017-05-22T00:59:45.706Z,7.80
2017-05-22T01:02:13.938Z,7.70
2017-05-22T01:04:40.933Z,7.70
2017-05-22T01:07:07.950Z,7.70
2017-05-22T01:09:36.185Z,7.60
2017-05-22T01:12:03.193Z,7.60
2017-05-22T01:14:30.221Z,7.60
2017-05-22T01:16:57.591Z,7.50
2017-05-22T01:19:24.613Z,7.50
2017-05-22T01:21:51.614Z,7.40
2017-05-22T01:24:18.946Z,7.40
2017-05-22T01:26:45.958Z,7.30
2017-05-22T01:29:13.026Z,7.30
2017-05-22T01:31:41.246Z,7.30
2017-05-22T01:34:08.254Z,7.20
2017-05-22T01:36:35.279Z,7.20
2017-05-22T01:39:03.490Z,7.30
2017-05-22T01:41:31.579Z,7.30
2017-05-22T01:43:58.633Z,7.20
2017-05-22T01:46:26.899Z,7.20
2017-05-22T01:48:53.957Z,7.10
2017-05-22T01:51:21.005Z,7.00
2017-05-22T01:53:48.341Z,7.00
2017-05-22T01:56:15.377Z,7.00
2017-05-22T01:58:42.387Z,7.00
2017-05-22T02:01:10.489Z,7.00
2017-05-22T02:03:37.485Z,7.10
2017-05-22T02:06:04.498Z,7.20
2017-05-22T02:08:32.666Z,7.20
2017-05-22T02:10:59.667Z,7.20
2017-05-22T02:13:26.678Z,7.30
2017-05-22T02:15:54.948Z,7.30
2017-05-22T02:18:21.949Z,7.30
2017-05-22T02:20:48.965Z,7.30
2017-05-22T02:23:17.103Z,7.30
2017-05-22T02:25:44.429Z,7.40
2017-05-22T02:28:11.426Z,7.30
2017-05-22T02:30:38.738Z,7.30
2017-05-22T02:33:05.753Z,7.20
2017-05-22T02:35:32.769Z,7.40
2017-05-22T02:38:00.074Z,7.50
2017-05-22T02:40:27.110Z,7.50
2017-05-22T02:42:54.121Z,7.60
2017-05-22T02:45:21.525Z,7.50
2017-05-22T02:47:48.533Z,7.40
2017-05-22T02:50:15.541Z,7.50
2017-05-22T02:52:42.870Z,7.50
2017-05-22T02:55:09.901Z,7.40
2017-05-22T02:57:36.913Z,7.50
2017-05-22T03:00:05.170Z,7.50
2017-05-22T03:02:32.242Z,7.50
2017-05-22T03:04:59.269Z,7.50
2017-05-22T03:07:27.449Z,7.40
2017-05-22T03:09:54.465Z,7.40
2017-05-22T03:12:21.470Z,7.30
2017-05-22T03:14:49.501Z,7.30
2017-05-22T03:17:16.502Z,7.30
2017-05-22T03:19:43.509Z,7.40
2017-05-22T03:22:11.546Z,7.50
2017-05-22T03:24:38.573Z,7.60
2017-05-22T03:27:05.579Z,7.50
2017-05-22T03:29:32.255Z,7.50
2017-05-22T03:31:59.277Z,7.50
2017-05-22T03:34:26.280Z,7.60
2017-05-22T03:36:53.601Z,7.60
2017-05-22T03:39:23.861Z,7.50
2017-05-22T03:41:50.872Z,7.60
2017-05-22T03:44:18.999Z,7.60
2017-05-22T03:46:46.005Z,7.70
2017-05-22T03:49:13.022Z,7.70
2017-05-22T03:51:40.388Z,7.80
2017-05-22T03:54:07.394Z,7.90
2017-05-22T03:56:34.393Z,8.00
2017-05-22T03:59:01.730Z,8.00
2017-05-22T04:01:28.734Z,8.10
2017-05-22T04:03:55.750Z,8.00
2017-05-22T04:06:23.185Z,8.00
2017-05-22T04:08:50.189Z,8.10
2017-05-22T04:11:17.193Z,8.20
2017-05-22T04:13:44.506Z,8.10
2017-05-22T04:16:11.502Z,8.10
2017-05-22T04:18:38.515Z,8.10
2017-05-22T04:21:05.868Z,8.00
2017-05-22T04:23:32.857Z,8.00
2017-05-22T04:25:59.865Z,8.00
2017-05-22T04:28:27.214Z,8.00
2017-05-22T04:30:54.223Z,7.90
2017-05-22T04:33:21.227Z,7.90
2017-05-22T04:35:48.569Z,7.80
2017-05-22T04:38:15.570Z,7.80
2017-05-22T04:40:42.573Z,7.90
2017-05-22T04:43:09.910Z,7.90
2017-05-22T04:45:36.914Z,7.90
2017-05-22T04:48:03.915Z,7.80
2017-05-22T04:50:31.248Z,7.90
2017-05-22T04:52:59.281Z,7.80
2017-05-22T04:55:26.294Z,7.80
2017-05-22T04:57:54.462Z,7.80
2017-05-22T05:00:21.535Z,7.70
2017-05-22T05:02:48.558Z,7.70
2017-05-22T05:05:16.691Z,7.70
2017-05-22T05:07:43.689Z,7.70
2017-05-22T05:10:10.709Z,7.90
2017-05-22T05:12:38.782Z,7.90
2017-05-22T05:15:05.801Z,8.10
2017-05-22T05:17:32.802Z,8.20
2017-05-22T05:20:01.005Z,8.30
2017-05-22T05:22:28.016Z,8.40
2017-05-22T05:24:55.066Z,8.50
2017-05-22T05:27:22.386Z,8.70
2017-05-22T05:29:49.407Z,8.90
2017-05-22T05:32:16.465Z,9.10
2017-05-22T05:34:43.837Z,9.30
2017-05-22T05:37:10.901Z,9.40
2017-05-22T05:39:37.905Z,9.60
2017-05-22T05:42:04.689Z,9.60
2017-05-22T05:44:32.713Z,9.90
2017-05-22T05:46:59.711Z,10.00
2017-05-22T05:49:27.030Z,10.20
2017-05-22T05:51:55.049Z,10.40
2017-05-22T05:54:21.332Z,10.30
2017-05-22T05:56:49.348Z,10.70
2017-05-22T05:59:16.346Z,10.80
2017-05-22T06:01:43.355Z,11.00
2017-05-22T06:04:11.374Z,11.20
2017-05-22T06:06:38.375Z,11.30
2017-05-22T06:09:06.393Z,11.50
2017-05-22T06:11:33.731Z,11.70
2017-05-22T06:14:00.730Z,11.90
2017-05-22T06:16:27.729Z,12.10
2017-05-22T06:18:55.019Z,12.30
2017-05-22T06:21:22.018Z,12.40
2017-05-22T06:23:49.020Z,12.40
2017-05-22T06:26:16.324Z,12.70
2017-05-22T06:28:44.376Z,12.80
2017-05-22T06:31:11.378Z,12.90
2017-05-22T06:33:38.791Z,13.00
2017-05-22T06:36:06.787Z,13.20
2017-05-22T06:38:33.782Z,13.00
2017-05-22T06:41:01.165Z,13.10
2017-05-22T06:43:28.161Z,13.30
2017-05-22T06:45:55.178Z,13.40
2017-05-22T06:48:23.449Z,13.60
2017-05-22T06:50:50.442Z,13.90
2017-05-22T06:53:17.436Z,13.80
2017-05-22T06:55:44.769Z,14.00
2017-05-22T06:58:11.769Z,14.30
2017-05-22T07:00:38.765Z,14.00
2017-05-22T07:03:07.035Z,14.30
2017-05-22T07:05:34.058Z,14.60
2017-05-22T07:08:00.318Z,14.50
2017-05-22T07:10:27.642Z,14.60
2017-05-22T07:12:53.926Z,14.60
2017-05-22T07:15:20.930Z,15.10
2017-05-22T07:17:48.258Z,15.20
2017-05-22T07:20:15.286Z,15.10
2017-05-22T07:22:42.292Z,15.10
2017-05-22T07:25:10.337Z,15.40
2017-05-22T07:27:37.354Z,15.50
2017-05-22T07:30:05.404Z,15.30
2017-05-22T07:32:32.725Z,15.40
2017-05-22T07:34:59.731Z,15.60
2017-05-22T07:37:25.997Z,15.60
2017-05-22T07:39:53.354Z,16.10
2017-05-22T07:42:20.361Z,16.20
2017-05-22T07:44:47.365Z,16.40
2017-05-22T07:47:14.698Z,16.40
2017-05-22T07:49:41.702Z,16.40
2017-05-22T07:52:07.962Z,16.40
2017-05-22T07:54:36.114Z,16.50
2017-05-22T07:57:03.139Z,16.10
2017-05-22T07:59:31.153Z,16.10
2017-05-22T08:01:59.251Z,16.50
2017-05-22T08:04:26.257Z,17.00
2017-05-22T08:06:53.896Z,17.40
2017-05-22T08:09:22.322Z,17.40
2017-05-22T08:11:49.346Z,17.50
2017-05-22T08:14:16.349Z,17.60
2017-05-22T08:16:44.694Z,17.70
2017-05-22T08:19:11.693Z,17.40
2017-05-22T08:21:38.706Z,17.20
2017-05-22T08:24:06.033Z,17.40
2017-05-22T08:26:33.033Z,17.70
2017-05-22T08:29:00.034Z,18.10
2017-05-22T08:31:27.446Z,17.60
2017-05-22T08:33:54.449Z,17.10
2017-05-22T08:36:21.445Z,17.20
2017-05-22T08:38:49.801Z,17.70
2017-05-22T08:41:16.811Z,18.30
2017-05-22T08:43:43.814Z,17.90
2017-05-22T08:46:12.038Z,18.30
2017-05-22T08:48:39.033Z,18.30
2017-05-22T08:51:06.030Z,18.30
2017-05-22T08:53:34.078Z,18.80
2017-05-22T08:56:01.079Z,18.90
2017-05-22T08:58:28.110Z,19.00
2017-05-22T09:00:56.468Z,18.90
2017-05-22T09:03:23.462Z,18.90
2017-05-22T09:05:50.458Z,18.80
2017-05-22T09:08:18.514Z,18.70
2017-05-22T09:10:45.626Z,18.80
2017-05-22T09:13:12.640Z,19.00
2017-05-22T09:15:39.966Z,19.10
2017-05-22T09:18:06.998Z,19.50
2017-05-22T09:20:34.001Z,19.80
2017-05-22T09:23:02.062Z,19.80
2017-05-22T09:25:29.109Z,20.00
2017-05-22T09:27:56.117Z,20.00
2017-05-22T09:30:24.390Z,20.10
2017-05-22T09:32:51.386Z,20.30
2017-05-22T09:35:18.389Z,20.20
2017-05-22T09:37:45.682Z,20.10
2017-05-22T09:40:12.721Z,20.10
2017-05-22T09:42:39.723Z,20.20
2017-05-22T09:45:07.077Z,19.80
2017-05-22T09:47:34.105Z,20.00
2017-05-22T09:50:01.109Z,20.30
2017-05-22T09:52:28.425Z,20.40
2017-05-22T09:54:56.190Z,20.50
2017-05-22T09:57:23.188Z,20.50
2017-05-22T09:59:49.771Z,20.50
2017-05-22T10:02:16.790Z,20.50
2017-05-22T10:04:43.809Z,20.30
2017-05-22T10:07:12.058Z,20.50
2017-05-22T10:09:39.073Z,21.20
2017-05-22T10:12:06.137Z,20.80
2017-05-22T10:14:33.503Z,21.00
2017-05-22T10:16:59.827Z,20.90
2017-05-22T10:19:26.851Z,21.70
2017-05-22T10:21:55.049Z,21.90
2017-05-22T10:24:22.046Z,21.60
2017-05-22T10:26:49.066Z,21.80
2017-05-22T10:29:17.486Z,22.00
2017-05-22T10:31:44.497Z,21.90
2017-05-22T10:34:11.497Z,22.10
2017-05-22T10:36:38.853Z,22.30
2017-05-22T10:39:05.890Z,22.30
2017-05-22T10:41:32.897Z,22.00
2017-05-22T10:44:00.174Z,21.70
2017-05-22T10:46:27.175Z,21.90
2017-05-22T10:48:54.174Z,21.30
2017-05-22T10:51:22.361Z,20.40
2017-05-22T10:53:49.380Z,20.90
2017-05-22T10:56:16.406Z,21.00
2017-05-22T10:58:44.497Z,20.40
2017-05-22T11:01:11.526Z,21.30
2017-05-22T11:03:38.537Z,21.90
2017-05-22T11:06:06.699Z,21.30
2017-05-22T11:08:33.722Z,21.50
2017-05-22T11:11:00.801Z,21.80
2017-05-22T11:13:29.055Z,21.70
2017-05-22T11:15:56.078Z,21.60
2017-05-22T11:18:23.085Z,22.70
2017-05-22T11:20:51.149Z,22.90
2017-05-22T11:23:18.151Z,22.50
2017-05-22T11:25:45.319Z,21.80
2017-05-22T11:28:12.667Z,21.50
2017-05-22T11:30:41.529Z,21.30
2017-05-22T11:33:09.128Z,21.80
2017-05-22T11:35:36.898Z,21.70
2017-05-22T11:38:03.907Z,21.80
2017-05-22T11:40:30.922Z,21.50
2017-05-22T11:42:57.518Z,21.40
2017-05-22T11:45:24.514Z,22.10
2017-05-22T11:47:51.522Z,22.30
2017-05-22T11:50:18.831Z,22.10
2017-05-22T11:52:45.843Z,22.30
2017-05-22T11:55:12.841Z,21.90
2017-05-22T11:57:40.187Z,22.50
2017-05-22T12:00:07.245Z,22.40
2017-05-22T12:02:34.241Z,22.50
2017-05-22T12:05:01.542Z,22.40
2017-05-22T12:07:28.546Z,22.30
2017-05-22T12:09:55.661Z,22.70
2017-05-22T12:12:22.998Z,22.70
2017-05-22T12:14:50.018Z,22.60
2017-05-22T12:17:17.301Z,23.30
2017-05-22T12:19:44.750Z,23.70
2017-05-22T12:22:11.757Z,23.40
2017-05-22T12:24:38.752Z,24.80
2017-05-22T12:27:06.074Z,25.20
2017-05-22T12:29:34.117Z,26.20
2017-05-22T12:32:01.113Z,26.40
2017-05-22T12:34:29.398Z,26.20
2017-05-22T12:36:56.421Z,26.10
2017-05-22T12:39:23.431Z,25.10
2017-05-22T12:41:50.745Z,26.00
2017-05-22T12:44:17.753Z,26.70
2017-05-22T12:46:44.771Z,25.90
2017-05-22T12:49:12.851Z,25.50
2017-05-22T12:51:39.857Z,24.70
2017-05-22T12:54:06.861Z,24.00
2017-05-22T12:56:34.241Z,24.50
2017-05-22T12:59:01.246Z,24.70
2017-05-22T13:01:28.246Z,25.30
2017-05-22T13:03:55.586Z,27.30
2017-05-22T13:06:22.602Z,27.20
2017-05-22T13:08:49.637Z,26.70
2017-05-22T13:11:16.941Z,27.20
2017-05-22T13:13:43.938Z,26.10
2017-05-22T13:16:10.200Z,26.10
2017-05-22T13:18:38.389Z,24.80
2017-05-22T13:21:04.669Z,24.80
2017-05-22T13:23:31.670Z,24.30
2017-05-22T13:25:59.009Z,24.00
2017-05-22T13:28:26.019Z,25.10
2017-05-22T13:30:53.022Z,26.00
2017-05-22T13:33:20.318Z,27.50
2017-05-22T13:35:47.340Z,27.90
2017-05-22T13:38:14.354Z,29.10
2017-05-22T13:40:41.705Z,30.50
2017-05-22T13:43:08.394Z,30.40
2017-05-22T13:45:35.394Z,30.10
2017-05-22T13:48:02.746Z,27.90
2017-05-22T13:50:29.026Z,27.80
2017-05-22T13:52:56.198Z,31.80
2017-05-22T13:55:24.261Z,31.10
2017-05-22T13:57:51.582Z,31.50
2017-05-22T14:00:18.589Z,33.80
2017-05-22T14:02:46.970Z,29.30
2017-05-22T14:05:14.005Z,27.90
2017-05-22T14:07:41.007Z,29.20
2017-05-22T14:10:08.310Z,30.50
2017-05-22T14:12:35.313Z,30.30
2017-05-22T14:15:02.321Z,29.80
2017-05-22T14:17:30.536Z,30.60
2017-05-22T14:19:57.540Z,31.40
2017-05-22T14:22:24.546Z,32.20
2017-05-22T14:24:52.592Z,31.80
2017-05-22T14:27:19.603Z,31.20
2017-05-22T14:29:46.618Z,29.90
2017-05-22T14:32:13.986Z,33.30
2017-05-22T14:34:40.998Z,31.60
2017-05-22T14:37:08.002Z,32.50
2017-05-22T14:39:35.309Z,32.10
2017-05-22T14:42:02.322Z,31.70
2017-05-22T14:44:29.339Z,31.10
2017-05-22T14:46:57.473Z,34.50
2017-05-22T14:49:24.494Z,38.00
2017-05-22T14:51:52.530Z,34.90
2017-05-22T14:54:20.559Z,33.50
2017-05-22T14:56:47.562Z,29.70
2017-05-22T14:59:15.621Z,27.60
2017-05-22T15:01:42.955Z,27.90
2017-05-22T15:04:09.957Z,29.80
2017-05-22T15:06:36.982Z,32.20
2017-05-22T15:09:04.309Z,30.80
2017-05-22T15:11:31.309Z,34.40
2017-05-22T15:13:58.310Z,36.10
2017-05-22T15:16:25.637Z,34.80
2017-05-22T15:18:52.646Z,34.00
2017-05-22T15:21:19.651Z,34.70
2017-05-22T15:23:46.987Z,33.70
2017-05-22T15:26:14.001Z,31.30
2017-05-22T15:28:41.005Z,35.60
2017-05-22T15:31:08.339Z,37.90
2017-05-22T15:33:35.359Z,33.30
2017-05-22T15:36:02.375Z,33.40
2017-05-22T15:38:29.730Z,34.70
2017-05-22T15:40:56.746Z,32.10
2017-05-22T15:43:23.759Z,31.70
2017-05-22T15:45:51.809Z,30.10
2017-05-22T15:48:18.815Z,31.50
2017-05-22T15:50:45.834Z,33.30
2017-05-22T15:53:14.894Z,34.20
2017-05-22T15:55:41.895Z,32.10
2017-05-22T15:58:08.902Z,31.20
2017-05-22T16:00:36.915Z,30.10
2017-05-22T16:03:03.946Z,30.70
2017-05-22T16:05:30.937Z,30.80
2017-05-22T16:07:58.334Z,33.80
2017-05-22T16:10:25.344Z,35.80
2017-05-22T16:12:52.368Z,34.80
2017-05-22T16:15:19.681Z,32.50
2017-05-22T16:17:46.678Z,31.30
2017-05-22T16:20:13.681Z,31.10
2017-05-22T16:22:41.026Z,30.60
2017-05-22T16:25:07.297Z,30.60
2017-05-22T16:27:34.298Z,32.00
2017-05-22T16:30:02.520Z,31.30
2017-05-22T16:32:29.521Z,31.70
2017-05-22T16:34:56.530Z,32.10
2017-05-22T16:37:24.757Z,32.30
2017-05-22T16:39:51.763Z,33.80
2017-05-22T16:42:18.774Z,33.40
2017-05-22T16:44:46.079Z,33.50
2017-05-22T16:47:13.092Z,34.80
2017-05-22T16:49:40.115Z,33.70
2017-05-22T16:52:07.442Z,30.30
2017-05-22T16:54:33.703Z,30.20
2017-05-22T16:57:00.709Z,29.90
2017-05-22T16:59:28.719Z,30.20
2017-05-22T17:01:55.721Z,29.80
2017-05-22T17:04:22.717Z,26.70
2017-05-22T17:06:50.918Z,24.30
2017-05-22T17:09:17.927Z,23.70
2017-05-22T17:11:44.929Z,23.30
2017-05-22T17:14:12.229Z,23.20
2017-05-22T17:16:39.270Z,23.10
2017-05-22T17:19:06.286Z,22.70
2017-05-22T17:21:33.574Z,23.20
2017-05-22T17:24:00.570Z,22.70
2017-05-22T17:26:27.583Z,22.30
2017-05-22T17:28:54.978Z,22.30
2017-05-22T17:31:21.999Z,22.00
2017-05-22T17:33:49.046Z,22.10
2017-05-22T17:36:16.463Z,21.80
2017-05-22T17:38:43.499Z,21.40
2017-05-22T17:41:10.511Z,20.90
2017-05-22T17:43:38.734Z,20.60
2017-05-22T17:46:05.761Z,20.50
2017-05-22T17:48:32.769Z,20.30
2017-05-22T17:51:01.017Z,20.10
2017-05-22T17:53:28.021Z,19.90
2017-05-22T17:55:55.013Z,19.80
2017-05-22T17:58:22.370Z,19.70
2017-05-22T18:00:48.633Z,19.60
2017-05-22T18:03:15.629Z,19.50
2017-05-22T18:05:42.961Z,19.50
2017-05-22T18:08:09.958Z,19.40
2017-05-22T18:10:37.031Z,19.30
2017-05-22T18:13:04.322Z,19.00
2017-05-22T18:15:31.329Z,18.70
2017-05-22T18:17:58.448Z,18.70
2017-05-22T18:20:25.866Z,18.50
2017-05-22T18:22:52.874Z,18.40
2017-05-22T18:25:19.874Z,18.30
2017-05-22T18:27:47.187Z,18.10
2017-05-22T18:30:15.214Z,18.00
2017-05-22T18:32:42.228Z,17.90
2017-05-22T18:35:09.517Z,17.80
2017-05-22T18:37:37.522Z,17.70
2017-05-22T18:40:04.597Z,17.60
2017-05-22T18:42:31.909Z,17.50
2017-05-22T18:44:59.917Z,17.30
2017-05-22T18:47:26.934Z,17.20
2017-05-22T18:49:54.283Z,16.90
2017-05-22T18:52:21.297Z,16.70
2017-05-22T18:54:48.292Z,16.60
2017-05-22T18:57:15.730Z,16.50
2017-05-22T18:59:42.767Z,16.40
2017-05-22T19:02:09.850Z,16.30
2017-05-22T19:04:38.115Z,16.00
2017-05-22T19:07:05.126Z,15.90
2017-05-22T19:09:31.396Z,15.80
2017-05-22T19:11:57.978Z,15.90
2017-05-22T19:14:24.986Z,15.70
2017-05-22T19:16:51.989Z,15.50
2017-05-22T19:19:19.357Z,15.30
2017-05-22T19:21:46.382Z,15.30
2017-05-22T19:24:13.410Z,15.40
2017-05-22T19:26:41.547Z,15.50
2017-05-22T19:29:08.674Z,15.40
2017-05-22T19:31:35.697Z,15.40
2017-05-22T19:34:03.075Z,15.20
2017-05-22T19:36:30.069Z,15.30
2017-05-22T19:38:57.101Z,15.20
2017-05-22T19:41:24.510Z,15.10
2017-05-22T19:43:51.509Z,15.00
2017-05-22T19:46:18.501Z,15.00
2017-05-22T19:48:45.778Z,14.70
2017-05-22T19:51:12.809Z,14.50
2017-05-22T19:53:39.805Z,14.40
2017-05-22T19:56:07.106Z,14.40
2017-05-22T19:58:34.106Z,14.30
2017-05-22T20:01:01.107Z,14.20
2017-05-22T20:03:29.357Z,14.10
2017-05-22T20:05:56.364Z,14.10
2017-05-22T20:08:23.495Z,14.00
2017-05-22T20:10:50.821Z,13.70
2017-05-22T20:13:17.819Z,13.80
2017-05-22T20:15:44.862Z,13.60
2017-05-22T20:18:12.193Z,13.60
2017-05-22T20:20:39.208Z,13.70
2017-05-22T20:23:07.389Z,13.80
2017-05-22T20:25:34.757Z,13.60
2017-05-22T20:28:01.753Z,13.50
2017-05-22T20:30:28.061Z,13.50
2017-05-22T20:32:55.361Z,13.30
2017-05-22T20:35:22.785Z,13.40
2017-05-22T20:37:50.835Z,13.40
2017-05-22T20:40:18.145Z,13.30
2017-05-22T20:42:45.148Z,13.10
2017-05-22T20:45:12.149Z,13.00
2017-05-22T20:47:39.493Z,12.90
2017-05-22T20:50:06.510Z,12.80
2017-05-22T20:52:33.530Z,12.70
2017-05-22T20:55:00.845Z,12.70
2017-05-22T20:57:27.969Z,12.60
2017-05-22T20:59:54.967Z,12.70
2017-05-22T21:02:22.285Z,12.60
2017-05-22T21:04:49.297Z,12.70
2017-05-22T21:07:16.577Z,12.60
2017-05-22T21:09:44.742Z,12.70
2017-05-22T21:12:11.750Z,12.60
2017-05-22T21:14:38.776Z,12.50
2017-05-22T21:17:07.007Z,12.50
2017-05-22T21:19:33.281Z,12.50
2017-05-22T21:22:00.299Z,12.40
2017-05-22T21:24:27.655Z,12.40
2017-05-22T21:26:54.654Z,12.30
2017-05-22T21:29:21.683Z,12.30
2017-05-22T21:31:48.965Z,12.40
2017-05-22T21:34:15.962Z,12.20
2017-05-22T21:36:42.965Z,12.30
2017-05-22T21:39:10.341Z,12.30
2017-05-22T21:41:37.340Z,12.10
2017-05-22T21:44:04.353Z,12.20
2017-05-22T21:46:31.690Z,12.10
2017-05-22T21:48:58.699Z,12.20
2017-05-22T21:51:25.722Z,12.20
2017-05-22T21:53:53.037Z,12.10
2017-05-22T21:56:21.095Z,11.90
2017-05-22T21:58:47.371Z,11.90
2017-05-22T22:01:14.697Z,11.80
2017-05-22T22:03:41.694Z,11.90
2017-05-22T22:06:07.945Z,11.90
2017-05-22T22:08:34.501Z,11.90
2017-05-22T22:11:01.558Z,11.70
2017-05-22T22:13:29.128Z,11.80
2017-05-22T22:15:55.730Z,11.80
2017-05-22T22:18:22.741Z,11.80
2017-05-22T22:20:50.470Z,11.80
2017-05-22T22:23:17.754Z,11.90
2017-05-22T22:25:44.758Z,11.80
2017-05-22T22:28:11.753Z,11.90
2017-05-22T22:30:39.244Z,11.90
2017-05-22T22:33:07.061Z,11.90
2017-05-22T22:35:34.062Z,11.90
2017-05-22T22:38:00.622Z,11.90
2017-05-22T22:40:27.633Z,12.10
2017-05-22T22:42:54.654Z,12.20
2017-05-22T22:45:21.939Z,12.30
2017-05-22T22:47:48.935Z,12.30
2017-05-22T22:50:15.938Z,12.30
2017-05-22T22:52:44.174Z,12.30
2017-05-22T22:55:10.458Z,12.30
2017-05-22T22:57:37.465Z,12.30
2017-05-22T23:00:05.602Z,12.40
2017-05-22T23:02:32.627Z,12.40
2017-05-22T23:04:59.626Z,12.40
2017-05-22T23:07:27.750Z,12.40
2017-05-22T23:09:54.741Z,12.40
2017-05-22T23:12:21.745Z,12.30
2017-05-22T23:14:49.057Z,12.40
2017-05-22T23:17:16.069Z,12.30
2017-05-22T23:19:43.070Z,12.30
2017-05-22T23:22:11.269Z,12.30
2017-05-22T23:24:38.283Z,12.30
2017-05-22T23:27:05.315Z,12.30
2017-05-22T23:29:32.675Z,12.30
2017-05-22T23:31:59.673Z,12.30
2017-05-22T23:34:26.685Z,12.30
2017-05-22T23:36:54.027Z,12.30
2017-05-22T23:39:21.027Z,12.30
2017-05-22T23:41:48.126Z,12.40
2017-05-22T23:44:15.469Z,12.40
2017-05-22T23:46:42.469Z,12.50
2017-05-22T23:49:09.465Z,12.60
2017-05-22T23:51:36.809Z,12.60
2017-05-22T23:54:03.821Z,12.60
2017-05-22T23:56:30.817Z,12.60
2017-05-22T23:58:58.134Z,12.60
